sensor_id;sensor_type;location;lat;lon;timestamp;pressure;altitude;pressure_sealevel;temperature;humidity
41830;BME280;38614;43.472;23.936;2023-06-10T00:02:14;99687.72;;;18.07;100.00
41830;BME280;38614;43.472;23.936;2023-06-10T00:05:02;99701.91;;;18.19;100.00
41830;BME280;38614;43.472;23.936;2023-06-10T00:07:50;99707.16;;;18.17;100.00
41830;BME280;38614;43.472;23.936;2023-06-10T00:10:38;99704.72;;;18.19;100.00
41830;BME280;38614;43.472;23.936;2023-06-10T00:13:26;99698.69;;;18.21;100.00
41830;BME280;38614;43.472;23.936;2023-06-10T00:16:14;99678.91;;;18.08;100.00
41830;BME280;38614;43.472;23.936;2023-06-10T00:19:03;99678.03;;;18.15;100.00
41830;BME280;38614;43.472;23.936;2023-06-10T00:21:51;99706.13;;;18.31;100.00
41830;BME280;38614;43.472;23.936;2023-06-10T00:24:40;99699.75;;;18.31;100.00
41830;BME280;38614;43.472;23.936;2023-06-10T00:27:27;99693.38;;;18.30;100.00
41830;BME280;38614;43.472;23.936;2023-06-10T00:30:20;99702.13;;;18.32;100.00
41830;BME280;38614;43.472;23.936;2023-06-10T00:33:08;99688.81;;;18.13;100.00
41830;BME280;38614;43.472;23.936;2023-06-10T00:35:57;99704.19;;;18.28;100.00
41830;BME280;38614;43.472;23.936;2023-06-10T00:38:45;99686.78;;;18.17;100.00
41830;BME280;38614;43.472;23.936;2023-06-10T00:41:32;99714.97;;;18.30;100.00
41830;BME280;38614;43.472;23.936;2023-06-10T00:44:21;99718.13;;;18.32;100.00
41830;BME280;38614;43.472;23.936;2023-06-10T00:47:09;99711.03;;;18.23;100.00
41830;BME280;38614;43.472;23.936;2023-06-10T00:49:57;99685.34;;;18.05;100.00
41830;BME280;38614;43.472;23.936;2023-06-10T00:52:45;99726.25;;;18.22;100.00
41830;BME280;38614;43.472;23.936;2023-06-10T00:55:36;99701.66;;;18.10;100.00
41830;BME280;38614;43.472;23.936;2023-06-10T00:58:24;99726.19;;;18.26;100.00
41830;BME280;38614;43.472;23.936;2023-06-10T01:01:13;99739.75;;;18.28;100.00
41830;BME280;38614;43.472;23.936;2023-06-10T01:04:01;99726.19;;;18.26;100.00
41830;BME280;38614;43.472;23.936;2023-06-10T01:10:01;99729.00;;;18.26;100.00
41830;BME280;38614;43.472;23.936;2023-06-10T01:13:05;99719.50;;;18.20;100.00
41830;BME280;38614;43.472;23.936;2023-06-10T01:15:55;99709.63;;;18.12;100.00
41830;BME280;38614;43.472;23.936;2023-06-10T01:18:43;99717.06;;;18.22;100.00
41830;BME280;38614;43.472;23.936;2023-06-10T01:21:31;99694.22;;;18.27;100.00
41830;BME280;38614;43.472;23.936;2023-06-10T01:24:21;99693.63;;;18.12;100.00
41830;BME280;38614;43.472;23.936;2023-06-10T01:27:12;99714.97;;;18.30;100.00
41830;BME280;38614;43.472;23.936;2023-06-10T01:30:10;99725.34;;;18.29;100.00
41830;BME280;38614;43.472;23.936;2023-06-10T01:33:01;99723.69;;;18.35;100.00
41830;BME280;38614;43.472;23.936;2023-06-10T01:35:56;99705.44;;;18.23;100.00
41830;BME280;38614;43.472;23.936;2023-06-10T01:38:46;99724.47;;;18.36;100.00
41830;BME280;38614;43.472;23.936;2023-06-10T01:41:35;99714.78;;;18.40;100.00
41830;BME280;38614;43.472;23.936;2023-06-10T01:44:24;99702.97;;;18.29;100.00
41830;BME280;38614;43.472;23.936;2023-06-10T01:47:12;99722.72;;;18.45;100.00
41830;BME280;38614;43.472;23.936;2023-06-10T01:50:00;99720.03;;;18.38;100.00
41830;BME280;38614;43.472;23.936;2023-06-10T01:52:48;99723.63;;;18.39;100.00
41830;BME280;38614;43.472;23.936;2023-06-10T01:55:36;99700.53;;;18.31;100.00
41830;BME280;38614;43.472;23.936;2023-06-10T01:58:24;99715.16;;;18.42;100.00
41830;BME280;38614;43.472;23.936;2023-06-10T02:01:12;99719.56;;;18.43;100.00
41830;BME280;38614;43.472;23.936;2023-06-10T02:04:00;99714.69;;;18.47;100.00
41830;BME280;38614;43.472;23.936;2023-06-10T02:06:50;99711.19;;;18.40;100.00
41830;BME280;38614;43.472;23.936;2023-06-10T02:09:39;99715.59;;;18.41;100.00
41830;BME280;38614;43.472;23.936;2023-06-10T02:12:27;99725.16;;;18.43;100.00
41830;BME280;38614;43.472;23.936;2023-06-10T02:15:14;99720.75;;;18.42;100.00
41830;BME280;38614;43.472;23.936;2023-06-10T02:18:02;99719.56;;;18.43;100.00
41830;BME280;38614;43.472;23.936;2023-06-10T02:20:50;99708.09;;;18.34;100.00
41830;BME280;38614;43.472;23.936;2023-06-10T02:23:38;99717.50;;;18.47;100.00
41830;BME280;38614;43.472;23.936;2023-06-10T02:26:26;99680.66;;;18.26;100.00
41830;BME280;38614;43.472;23.936;2023-06-10T02:29:16;99680.25;;;18.27;100.00
41830;BME280;38614;43.472;23.936;2023-06-10T02:32:05;99663.19;;;18.18;100.00
41830;BME280;38614;43.472;23.936;2023-06-10T02:34:57;99704.22;;;18.51;100.00
41830;BME280;38614;43.472;23.936;2023-06-10T02:37:45;99708.66;;;18.49;100.00
41830;BME280;38614;43.472;23.936;2023-06-10T02:40:35;99714.59;;;18.55;100.00
41830;BME280;38614;43.472;23.936;2023-06-10T02:43:23;99645.47;;;18.01;100.00
41830;BME280;38614;43.472;23.936;2023-06-10T02:46:12;99711.53;;;18.45;100.00
41830;BME280;38614;43.472;23.936;2023-06-10T02:49:00;99696.50;;;18.36;100.00
41830;BME280;38614;43.472;23.936;2023-06-10T02:51:50;99705.56;;;18.43;100.00
41830;BME280;38614;43.472;23.936;2023-06-10T02:54:41;99709.56;;;18.42;100.00
41830;BME280;38614;43.472;23.936;2023-06-10T02:57:30;99707.25;;;18.37;100.00
41830;BME280;38614;43.472;23.936;2023-06-10T03:00:20;99702.44;;;18.38;100.00
41830;BME280;38614;43.472;23.936;2023-06-10T03:03:11;99706.72;;;18.46;100.00
41830;BME280;38614;43.472;23.936;2023-06-10T03:06:18;99712.63;;;18.51;100.00
41830;BME280;38614;43.472;23.936;2023-06-10T03:09:07;99683.66;;;18.38;100.00
41830;BME280;38614;43.472;23.936;2023-06-10T03:11:56;99693.09;;;18.48;100.00
41830;BME280;38614;43.472;23.936;2023-06-10T03:14:46;99712.56;;;18.55;100.00
41830;BME280;38614;43.472;23.936;2023-06-10T03:17:35;99711.78;;;18.55;100.00
41830;BME280;38614;43.472;23.936;2023-06-10T03:20:23;99683.34;;;18.33;100.00
41830;BME280;38614;43.472;23.936;2023-06-10T03:23:13;99720.09;;;18.62;100.00
41830;BME280;38614;43.472;23.936;2023-06-10T03:26:00;99723.25;;;18.64;100.00
41830;BME280;38614;43.472;23.936;2023-06-10T03:28:51;99697.19;;;18.43;100.00
41830;BME280;38614;43.472;23.936;2023-06-10T03:31:40;99727.66;;;18.65;100.00
41830;BME280;38614;43.472;23.936;2023-06-10T03:34:28;99727.53;;;18.72;100.00
41830;BME280;38614;43.472;23.936;2023-06-10T03:37:17;99737.94;;;18.71;100.00
41830;BME280;38614;43.472;23.936;2023-06-10T03:40:08;99738.25;;;18.77;100.00
41830;BME280;38614;43.472;23.936;2023-06-10T03:42:58;99734.19;;;18.82;100.00
41830;BME280;38614;43.472;23.936;2023-06-10T03:45:47;99732.28;;;18.75;100.00
41830;BME280;38614;43.472;23.936;2023-06-10T03:48:36;99721.00;;;18.78;100.00
41830;BME280;38614;43.472;23.936;2023-06-10T03:51:24;99713.00;;;18.81;100.00
41830;BME280;38614;43.472;23.936;2023-06-10T03:54:12;99729.38;;;18.82;100.00
41830;BME280;38614;43.472;23.936;2023-06-10T03:57:00;99738.19;;;18.81;100.00
41830;BME280;38614;43.472;23.936;2023-06-10T03:59:49;99728.69;;;18.74;100.00
41830;BME280;38614;43.472;23.936;2023-06-10T04:02:38;99739.78;;;18.82;100.00
41830;BME280;38614;43.472;23.936;2023-06-10T04:05:40;99736.22;;;18.77;100.00
41830;BME280;38614;43.472;23.936;2023-06-10T04:08:29;99714.81;;;18.67;100.00
41830;BME280;38614;43.472;23.936;2023-06-10T04:11:18;99728.25;;;18.76;100.00
41830;BME280;38614;43.472;23.936;2023-06-10T04:14:06;99739.09;;;18.74;100.00
41830;BME280;38614;43.472;23.936;2023-06-10T04:16:55;99744.19;;;18.79;100.00
41830;BME280;38614;43.472;23.936;2023-06-10T04:19:43;99744.84;;;18.90;100.00
41830;BME280;38614;43.472;23.936;2023-06-10T04:22:31;99746.44;;;18.88;100.00
41830;BME280;38614;43.472;23.936;2023-06-10T04:25:19;99746.28;;;18.98;100.00
41830;BME280;38614;43.472;23.936;2023-06-10T04:28:09;99743.34;;;19.05;100.00
41830;BME280;38614;43.472;23.936;2023-06-10T04:30:57;99735.94;;;19.19;100.00
41830;BME280;38614;43.472;23.936;2023-06-10T04:33:45;99750.91;;;19.32;100.00
41830;BME280;38614;43.472;23.936;2023-06-10T04:36:34;99737.63;;;19.36;100.00
41830;BME280;38614;43.472;23.936;2023-06-10T04:39:23;99734.09;;;19.32;100.00
41830;BME280;38614;43.472;23.936;2023-06-10T04:42:11;99738.41;;;19.36;100.00
41830;BME280;38614;43.472;23.936;2023-06-10T04:45:00;99730.00;;;19.36;100.00
41830;BME280;38614;43.472;23.936;2023-06-10T04:47:47;99706.84;;;19.13;100.00
41830;BME280;38614;43.472;23.936;2023-06-10T04:50:35;99737.13;;;19.41;100.00
41830;BME280;38614;43.472;23.936;2023-06-10T04:53:23;99724.19;;;19.27;100.00
41830;BME280;38614;43.472;23.936;2023-06-10T04:56:13;99742.84;;;19.34;100.00
41830;BME280;38614;43.472;23.936;2023-06-10T04:59:02;99744.81;;;19.37;100.00
41830;BME280;38614;43.472;23.936;2023-06-10T05:01:50;99716.50;;;19.31;100.00
41830;BME280;38614;43.472;23.936;2023-06-10T05:04:39;99722.75;;;19.39;100.00
41830;BME280;38614;43.472;23.936;2023-06-10T05:07:26;99735.66;;;19.56;100.00
41830;BME280;38614;43.472;23.936;2023-06-10T05:10:14;99740.25;;;19.67;100.00
41830;BME280;38614;43.472;23.936;2023-06-10T05:13:02;99743.72;;;19.74;100.00
41830;BME280;38614;43.472;23.936;2023-06-10T05:15:50;99737.16;;;19.81;100.00
41830;BME280;38614;43.472;23.936;2023-06-10T05:18:38;99744.66;;;19.87;100.00
41830;BME280;38614;43.472;23.936;2023-06-10T05:21:26;99741.13;;;20.03;100.00
41830;BME280;38614;43.472;23.936;2023-06-10T05:24:13;99740.16;;;20.10;100.00
41830;BME280;38614;43.472;23.936;2023-06-10T05:27:01;99747.56;;;20.20;100.00
41830;BME280;38614;43.472;23.936;2023-06-10T05:29:50;99745.91;;;20.23;100.00
41830;BME280;38614;43.472;23.936;2023-06-10T05:32:39;99754.00;;;20.37;100.00
41830;BME280;38614;43.472;23.936;2023-06-10T05:35:27;99757.91;;;20.43;100.00
41830;BME280;38614;43.472;23.936;2023-06-10T05:38:14;99752.97;;;20.47;100.00
41830;BME280;38614;43.472;23.936;2023-06-10T05:41:05;99760.47;;;20.54;100.00
41830;BME280;38614;43.472;23.936;2023-06-10T05:43:53;99729.28;;;20.32;100.00
41830;BME280;38614;43.472;23.936;2023-06-10T05:46:41;99749.69;;;20.32;100.00
41830;BME280;38614;43.472;23.936;2023-06-10T05:49:28;99757.41;;;20.48;100.00
41830;BME280;38614;43.472;23.936;2023-06-10T05:52:16;99753.81;;;20.64;100.00
41830;BME280;38614;43.472;23.936;2023-06-10T05:55:04;99760.75;;;20.75;100.00
41830;BME280;38614;43.472;23.936;2023-06-10T05:57:59;99758.66;;;20.96;100.00
41830;BME280;38614;43.472;23.936;2023-06-10T06:00:47;99764.63;;;21.14;100.00
41830;BME280;38614;43.472;23.936;2023-06-10T06:03:35;99744.78;;;20.89;100.00
41830;BME280;38614;43.472;23.936;2023-06-10T06:06:23;99758.91;;;21.18;100.00
41830;BME280;38614;43.472;23.936;2023-06-10T06:09:11;99751.09;;;21.09;100.00
41830;BME280;38614;43.472;23.936;2023-06-10T06:11:59;99773.03;;;21.30;100.00
41830;BME280;38614;43.472;23.936;2023-06-10T06:14:50;99756.72;;;21.42;100.00
41830;BME280;38614;43.472;23.936;2023-06-10T06:17:37;99755.53;;;21.55;100.00
41830;BME280;38614;43.472;23.936;2023-06-10T06:20:25;99733.31;;;21.45;100.00
41830;BME280;38614;43.472;23.936;2023-06-10T06:23:13;99741.91;;;21.54;100.00
41830;BME280;38614;43.472;23.936;2023-06-10T06:26:01;99714.28;;;21.65;100.00
41830;BME280;38614;43.472;23.936;2023-06-10T06:28:49;99724.31;;;22.08;100.00
41830;BME280;38614;43.472;23.936;2023-06-10T06:31:39;99728.38;;;22.19;100.00
41830;BME280;38614;43.472;23.936;2023-06-10T06:34:27;99727.47;;;22.10;100.00
41830;BME280;38614;43.472;23.936;2023-06-10T06:37:15;99706.84;;;22.00;100.00
41830;BME280;38614;43.472;23.936;2023-06-10T06:40:05;99707.63;;;22.01;100.00
41830;BME280;38614;43.472;23.936;2023-06-10T06:42:53;99724.00;;;22.31;100.00
41830;BME280;38614;43.472;23.936;2023-06-10T06:46:01;99702.16;;;22.35;100.00
41830;BME280;38614;43.472;23.936;2023-06-10T06:48:49;99711.06;;;22.46;100.00
41830;BME280;38614;43.472;23.936;2023-06-10T06:51:37;99712.19;;;22.36;100.00
41830;BME280;38614;43.472;23.936;2023-06-10T06:54:25;99708.47;;;22.27;100.00
41830;BME280;38614;43.472;23.936;2023-06-10T06:57:13;99705.06;;;22.06;100.00
41830;BME280;38614;43.472;23.936;2023-06-10T07:00:00;99673.09;;;22.13;100.00
41830;BME280;38614;43.472;23.936;2023-06-10T07:02:48;99693.50;;;22.55;100.00
41830;BME280;38614;43.472;23.936;2023-06-10T07:05:37;99692.47;;;22.49;100.00
41830;BME280;38614;43.472;23.936;2023-06-10T07:08:26;99697.44;;;22.45;100.00
41830;BME280;38614;43.472;23.936;2023-06-10T07:11:14;99704.97;;;22.35;100.00
41830;BME280;38614;43.472;23.936;2023-06-10T07:14:02;99703.84;;;22.33;100.00
41830;BME280;38614;43.472;23.936;2023-06-10T07:16:50;99705.31;;;22.50;100.00
41830;BME280;38614;43.472;23.936;2023-06-10T07:19:37;99695.88;;;22.44;100.00
41830;BME280;38614;43.472;23.936;2023-06-10T07:22:25;99697.63;;;22.76;100.00
41830;BME280;38614;43.472;23.936;2023-06-10T07:25:16;99704.47;;;23.00;100.00
41830;BME280;38614;43.472;23.936;2023-06-10T07:28:03;99696.69;;;23.39;100.00
41830;BME280;38614;43.472;23.936;2023-06-10T07:30:51;99688.19;;;23.74;100.00
41830;BME280;38614;43.472;23.936;2023-06-10T07:33:39;99674.72;;;23.56;100.00
41830;BME280;38614;43.472;23.936;2023-06-10T07:36:27;99680.47;;;23.65;100.00
41830;BME280;38614;43.472;23.936;2023-06-10T07:39:16;99687.13;;;23.80;100.00
41830;BME280;38614;43.472;23.936;2023-06-10T07:42:03;99707.34;;;23.79;100.00
41830;BME280;38614;43.472;23.936;2023-06-10T07:44:52;99702.41;;;23.70;100.00
41830;BME280;38614;43.472;23.936;2023-06-10T07:47:42;99698.72;;;23.82;100.00
41830;BME280;38614;43.472;23.936;2023-06-10T07:50:32;99706.31;;;24.16;100.00
41830;BME280;38614;43.472;23.936;2023-06-10T07:53:21;99670.72;;;24.19;100.00
41830;BME280;38614;43.472;23.936;2023-06-10T07:56:09;99691.56;;;24.43;100.00
41830;BME280;38614;43.472;23.936;2023-06-10T07:58:56;99713.91;;;24.60;100.00
41830;BME280;38614;43.472;23.936;2023-06-10T08:01:44;99693.31;;;24.50;100.00
41830;BME280;38614;43.472;23.936;2023-06-10T08:04:32;99679.56;;;24.70;100.00
41830;BME280;38614;43.472;23.936;2023-06-10T08:07:22;99678.31;;;24.81;100.00
41830;BME280;38614;43.472;23.936;2023-06-10T08:10:11;99702.69;;;24.96;100.00
41830;BME280;38614;43.472;23.936;2023-06-10T08:13:02;99697.88;;;25.15;100.00
41830;BME280;38614;43.472;23.936;2023-06-10T08:15:49;99706.19;;;25.37;100.00
41830;BME280;38614;43.472;23.936;2023-06-10T08:18:38;99702.13;;;25.47;100.00
41830;BME280;38614;43.472;23.936;2023-06-10T08:21:26;99699.44;;;25.44;100.00
41830;BME280;38614;43.472;23.936;2023-06-10T08:24:17;99684.53;;;25.16;100.00
41830;BME280;38614;43.472;23.936;2023-06-10T08:27:06;99701.91;;;24.96;100.00
41830;BME280;38614;43.472;23.936;2023-06-10T08:29:54;99697.50;;;24.95;100.00
41830;BME280;38614;43.472;23.936;2023-06-10T08:32:47;99686.97;;;24.77;100.00
41830;BME280;38614;43.472;23.936;2023-06-10T08:35:35;99694.66;;;24.86;100.00
41830;BME280;38614;43.472;23.936;2023-06-10T08:38:24;99672.81;;;24.77;100.00
41830;BME280;38614;43.472;23.936;2023-06-10T08:41:14;99697.38;;;25.08;100.00
41830;BME280;38614;43.472;23.936;2023-06-10T08:44:17;99698.50;;;25.19;100.00
41830;BME280;38614;43.472;23.936;2023-06-10T08:47:14;99689.41;;;25.24;100.00
41830;BME280;38614;43.472;23.936;2023-06-10T08:50:05;99681.69;;;25.16;100.00
41830;BME280;38614;43.472;23.936;2023-06-10T08:52:58;99700.84;;;25.30;100.00
41830;BME280;38614;43.472;23.936;2023-06-10T08:55:50;99694.88;;;25.28;100.00
41830;BME280;38614;43.472;23.936;2023-06-10T08:58:47;99695.53;;;25.23;100.00
41830;BME280;38614;43.472;23.936;2023-06-10T09:01:38;99673.03;;;25.28;100.00
41830;BME280;38614;43.472;23.936;2023-06-10T09:04:27;99659.16;;;25.95;100.00
41830;BME280;38614;43.472;23.936;2023-06-10T09:07:16;99672.38;;;26.31;100.00
41830;BME280;38614;43.472;23.936;2023-06-10T09:10:05;99665.56;;;26.04;100.00
41830;BME280;38614;43.472;23.936;2023-06-10T09:12:55;99653.81;;;25.97;100.00
41830;BME280;38614;43.472;23.936;2023-06-10T09:15:43;99674.16;;;26.19;100.00
41830;BME280;38614;43.472;23.936;2023-06-10T09:18:32;99638.06;;;26.71;100.00
41830;BME280;38614;43.472;23.936;2023-06-10T09:21:22;99658.13;;;27.45;100.00
41830;BME280;38614;43.472;23.936;2023-06-10T09:24:10;99655.88;;;27.64;100.00
41830;BME280;38614;43.472;23.936;2023-06-10T09:27:06;99659.81;;;28.10;100.00
41830;BME280;38614;43.472;23.936;2023-06-10T09:29:54;99658.13;;;28.48;100.00
41830;BME280;38614;43.472;23.936;2023-06-10T09:32:42;99646.91;;;28.94;100.00
41830;BME280;38614;43.472;23.936;2023-06-10T09:35:31;99641.09;;;29.30;100.00
41830;BME280;38614;43.472;23.936;2023-06-10T09:38:20;99640.38;;;28.74;100.00
41830;BME280;38614;43.472;23.936;2023-06-10T09:41:09;99638.03;;;28.52;100.00
41830;BME280;38614;43.472;23.936;2023-06-10T09:43:57;99638.66;;;28.26;100.00
41830;BME280;38614;43.472;23.936;2023-06-10T09:46:46;99644.06;;;28.09;100.00
41830;BME280;38614;43.472;23.936;2023-06-10T09:49:37;99648.03;;;28.47;100.00
41830;BME280;38614;43.472;23.936;2023-06-10T09:52:26;99638.66;;;28.26;100.00
41830;BME280;38614;43.472;23.936;2023-06-10T09:55:15;99639.41;;;27.77;100.00
41830;BME280;38614;43.472;23.936;2023-06-10T09:58:04;99628.50;;;27.61;100.00
41830;BME280;38614;43.472;23.936;2023-06-10T10:00:52;99635.38;;;27.69;100.00
41830;BME280;38614;43.472;23.936;2023-06-10T10:03:49;99636.28;;;27.21;100.00
41830;BME280;38614;43.472;23.936;2023-06-10T10:06:38;99629.56;;;27.48;100.00
41830;BME280;38614;43.472;23.936;2023-06-10T10:09:38;99608.34;;;27.88;100.00
41830;BME280;38614;43.472;23.936;2023-06-10T10:12:26;99624.97;;;28.60;100.00
41830;BME280;38614;43.472;23.936;2023-06-10T10:15:17;99603.50;;;28.79;100.00
41830;BME280;38614;43.472;23.936;2023-06-10T10:18:10;99615.16;;;29.48;100.00
41830;BME280;38614;43.472;23.936;2023-06-10T10:21:01;99626.97;;;29.41;100.00
41830;BME280;38614;43.472;23.936;2023-06-10T10:24:05;99617.66;;;29.61;100.00
41830;BME280;38614;43.472;23.936;2023-06-10T10:26:58;99611.81;;;28.83;100.00
41830;BME280;38614;43.472;23.936;2023-06-10T10:29:51;99618.75;;;29.43;100.00
41830;BME280;38614;43.472;23.936;2023-06-10T10:33:07;99609.06;;;29.87;100.00
41830;BME280;38614;43.472;23.936;2023-06-10T10:35:58;99603.38;;;30.18;100.00
41830;BME280;38614;43.472;23.936;2023-06-10T10:38:47;99604.78;;;30.02;97.40
41830;BME280;38614;43.472;23.936;2023-06-10T10:41:39;99608.00;;;30.10;93.96
41830;BME280;38614;43.472;23.936;2023-06-10T10:44:28;99587.19;;;30.41;100.00
41830;BME280;38614;43.472;23.936;2023-06-10T10:47:22;99608.13;;;30.27;91.23
41830;BME280;38614;43.472;23.936;2023-06-10T10:50:19;99596.00;;;30.43;93.37
41830;BME280;38614;43.472;23.936;2023-06-10T10:53:07;99582.19;;;30.68;92.66
41830;BME280;38614;43.472;23.936;2023-06-10T10:56:12;99577.13;;;30.46;100.00
41830;BME280;38614;43.472;23.936;2023-06-10T10:59:05;99576.19;;;29.86;87.31
41830;BME280;38614;43.472;23.936;2023-06-10T11:01:53;99572.75;;;30.07;97.04
41830;BME280;38614;43.472;23.936;2023-06-10T11:04:46;99570.75;;;30.19;97.51
41830;BME280;38614;43.472;23.936;2023-06-10T11:07:35;99572.38;;;30.31;95.67
41830;BME280;38614;43.472;23.936;2023-06-10T11:10:37;99569.78;;;30.28;89.21
41830;BME280;38614;43.472;23.936;2023-06-10T11:13:28;99555.34;;;29.42;93.18
41830;BME280;38614;43.472;23.936;2023-06-10T11:16:19;99567.13;;;30.19;89.40
41830;BME280;38614;43.472;23.936;2023-06-10T11:19:07;99574.03;;;30.49;85.84
41830;BME280;38614;43.472;23.936;2023-06-10T11:21:59;99546.75;;;30.37;86.20
41830;BME280;38614;43.472;23.936;2023-06-10T11:24:50;99561.31;;;30.45;79.88
41830;BME280;38614;43.472;23.936;2023-06-10T11:27:41;99537.31;;;30.62;87.59
41830;BME280;38614;43.472;23.936;2023-06-10T11:30:34;99551.03;;;31.29;82.16
41830;BME280;38614;43.472;23.936;2023-06-10T11:33:23;99532.06;;;31.43;78.83
41830;BME280;38614;43.472;23.936;2023-06-10T11:36:12;99538.69;;;30.84;70.29
41830;BME280;38614;43.472;23.936;2023-06-10T11:39:05;99545.75;;;31.05;77.64
41830;BME280;38614;43.472;23.936;2023-06-10T11:41:53;99525.34;;;30.58;75.71
41830;BME280;38614;43.472;23.936;2023-06-10T11:44:51;99523.63;;;30.24;71.09
41830;BME280;38614;43.472;23.936;2023-06-10T11:47:39;99504.97;;;30.17;66.45
41830;BME280;38614;43.472;23.936;2023-06-10T11:50:31;99511.81;;;30.48;63.10
41830;BME280;38614;43.472;23.936;2023-06-10T11:53:19;99513.94;;;30.58;63.83
41830;BME280;38614;43.472;23.936;2023-06-10T11:56:07;99517.72;;;31.04;65.10
41830;BME280;38614;43.472;23.936;2023-06-10T11:58:59;99524.81;;;31.47;68.47
41830;BME280;38614;43.472;23.936;2023-06-10T12:01:51;99503.69;;;30.89;64.69
41830;BME280;38614;43.472;23.936;2023-06-10T12:04:39;99518.28;;;31.13;65.59
41830;BME280;38614;43.472;23.936;2023-06-10T12:07:27;99523.41;;;30.81;64.51
41830;BME280;38614;43.472;23.936;2023-06-10T12:10:15;99517.50;;;30.42;63.58
41830;BME280;38614;43.472;23.936;2023-06-10T12:13:14;99499.25;;;30.77;65.91
41830;BME280;38614;43.472;23.936;2023-06-10T12:16:11;99508.09;;;30.84;65.49
41830;BME280;38614;43.472;23.936;2023-06-10T12:19:05;99513.66;;;31.33;64.63
41830;BME280;38614;43.472;23.936;2023-06-10T12:21:54;99513.13;;;31.29;62.45
41830;BME280;38614;43.472;23.936;2023-06-10T12:25:05;99510.00;;;31.27;61.29
41830;BME280;38614;43.472;23.936;2023-06-10T12:27:56;99504.50;;;31.01;60.64
41830;BME280;38614;43.472;23.936;2023-06-10T12:30:44;99493.69;;;31.38;66.15
41830;BME280;38614;43.472;23.936;2023-06-10T12:33:32;99488.72;;;31.44;64.04
41830;BME280;38614;43.472;23.936;2023-06-10T12:36:20;99498.59;;;31.27;60.99
41830;BME280;38614;43.472;23.936;2023-06-10T12:39:13;99494.41;;;31.16;60.16
41830;BME280;38614;43.472;23.936;2023-06-10T12:42:01;99498.03;;;31.11;62.45
41830;BME280;38614;43.472;23.936;2023-06-10T12:44:53;99492.06;;;30.33;59.65
41830;BME280;38614;43.472;23.936;2023-06-10T12:47:41;99509.19;;;30.39;64.89
41830;BME280;38614;43.472;23.936;2023-06-10T12:50:30;99495.84;;;30.67;60.42
41830;BME280;38614;43.472;23.936;2023-06-10T12:53:19;99486.63;;;31.11;67.77
41830;BME280;38614;43.472;23.936;2023-06-10T12:56:09;99451.56;;;30.88;61.02
41830;BME280;38614;43.472;23.936;2023-06-10T12:58:57;99485.34;;;31.18;63.74
41830;BME280;38614;43.472;23.936;2023-06-10T13:01:52;99478.31;;;31.13;62.42
41830;BME280;38614;43.472;23.936;2023-06-10T13:04:40;99471.56;;;31.11;61.85
41830;BME280;38614;43.472;23.936;2023-06-10T13:07:28;99482.19;;;30.99;59.92
41830;BME280;38614;43.472;23.936;2023-06-10T13:10:17;99457.56;;;31.07;57.65
41830;BME280;38614;43.472;23.936;2023-06-10T13:13:08;99480.19;;;31.56;62.58
41830;BME280;38614;43.472;23.936;2023-06-10T13:15:57;99474.97;;;31.43;60.64
41830;BME280;38614;43.472;23.936;2023-06-10T13:18:45;99420.75;;;31.37;61.20
41830;BME280;38614;43.472;23.936;2023-06-10T13:21:33;99470.53;;;31.08;60.98
41830;BME280;38614;43.472;23.936;2023-06-10T13:24:21;99455.78;;;31.32;61.71
41830;BME280;38614;43.472;23.936;2023-06-10T13:27:09;99463.56;;;31.65;61.18
41830;BME280;38614;43.472;23.936;2023-06-10T13:29:57;99462.25;;;31.49;57.70
41830;BME280;38614;43.472;23.936;2023-06-10T13:32:45;99459.13;;;31.19;58.43
41830;BME280;38614;43.472;23.936;2023-06-10T13:35:32;99426.97;;;31.02;60.24
41830;BME280;38614;43.472;23.936;2023-06-10T13:38:20;99462.00;;;31.36;58.63
41830;BME280;38614;43.472;23.936;2023-06-10T13:41:08;99452.91;;;31.43;61.29
41830;BME280;38614;43.472;23.936;2023-06-10T13:43:57;99458.38;;;31.47;59.72
41830;BME280;38614;43.472;23.936;2023-06-10T13:46:47;99449.31;;;31.37;59.45
41830;BME280;38614;43.472;23.936;2023-06-10T13:49:38;99458.13;;;31.39;59.39
41830;BME280;38614;43.472;23.936;2023-06-10T13:52:27;99444.63;;;31.29;61.45
41830;BME280;38614;43.472;23.936;2023-06-10T13:55:18;99445.88;;;31.05;61.30
41830;BME280;38614;43.472;23.936;2023-06-10T13:58:07;99439.13;;;30.91;61.67
41830;BME280;38614;43.472;23.936;2023-06-10T14:00:55;99440.28;;;30.34;61.86
41830;BME280;38614;43.472;23.936;2023-06-10T14:03:43;99439.25;;;29.89;64.38
41830;BME280;38614;43.472;23.936;2023-06-10T14:06:31;99454.66;;;30.14;63.94
41830;BME280;38614;43.472;23.936;2023-06-10T14:09:19;99430.47;;;30.58;63.01
41830;BME280;38614;43.472;23.936;2023-06-10T14:12:07;99452.22;;;29.96;64.58
41830;BME280;38614;43.472;23.936;2023-06-10T14:14:56;99447.81;;;29.52;64.54
41830;BME280;38614;43.472;23.936;2023-06-10T14:17:44;99466.25;;;29.62;64.81
41830;BME280;38614;43.472;23.936;2023-06-10T14:20:32;99433.88;;;29.97;65.82
41830;BME280;38614;43.472;23.936;2023-06-10T14:23:19;99426.94;;;30.09;65.52
41830;BME280;38614;43.472;23.936;2023-06-10T14:26:07;99445.00;;;30.60;63.87
41830;BME280;38614;43.472;23.936;2023-06-10T14:28:55;99448.81;;;30.40;61.49
41830;BME280;38614;43.472;23.936;2023-06-10T14:31:43;99446.19;;;30.25;61.67
41830;BME280;38614;43.472;23.936;2023-06-10T14:34:31;99430.69;;;30.38;65.17
41830;BME280;38614;43.472;23.936;2023-06-10T14:37:21;99432.25;;;30.39;63.81
41830;BME280;38614;43.472;23.936;2023-06-10T14:40:09;99433.75;;;30.28;63.09
41830;BME280;38614;43.472;23.936;2023-06-10T14:42:57;99424.72;;;30.41;61.90